sensor_id;sensor_type;location;lat;lon;timestamp;P1;durP1;ratioP1;P2;durP2;ratioP2
35578;SDS011;21687;48.900;9.188;2022-10-16T00:00:32;2.63;;;2.13;;
35578;SDS011;21687;48.900;9.188;2022-10-16T00:03:00;2.30;;;2.10;;
35578;SDS011;21687;48.900;9.188;2022-10-16T00:05:27;3.77;;;2.20;;
35578;SDS011;21687;48.900;9.188;2022-10-16T00:07:53;4.47;;;1.80;;
35578;SDS011;21687;48.900;9.188;2022-10-16T00:10:20;2.07;;;1.70;;
35578;SDS011;21687;48.900;9.188;2022-10-16T00:12:46;4.80;;;2.30;;
35578;SDS011;21687;48.900;9.188;2022-10-16T00:15:13;2.10;;;1.90;;
35578;SDS011;21687;48.900;9.188;2022-10-16T00:17:39;3.17;;;2.13;;
35578;SDS011;21687;48.900;9.188;2022-10-16T00:20:05;2.77;;;1.87;;
35578;SDS011;21687;48.900;9.188;2022-10-16T00:22:32;3.20;;;2.20;;
35578;SDS011;21687;48.900;9.188;2022-10-16T00:24:59;2.43;;;1.77;;
35578;SDS011;21687;48.900;9.188;2022-10-16T00:27:25;2.57;;;2.20;;
35578;SDS011;21687;48.900;9.188;2022-10-16T00:29:51;1.93;;;1.70;;
35578;SDS011;21687;48.900;9.188;2022-10-16T00:32:18;3.10;;;2.10;;
35578;SDS011;21687;48.900;9.188;2022-10-16T00:34:45;2.13;;;1.83;;
35578;SDS011;21687;48.900;9.188;2022-10-16T00:37:12;1.80;;;1.70;;
35578;SDS011;21687;48.900;9.188;2022-10-16T00:39:38;2.57;;;1.97;;
35578;SDS011;21687;48.900;9.188;2022-10-16T00:42:05;2.00;;;1.80;;
35578;SDS011;21687;48.900;9.188;2022-10-16T00:44:50;2.73;;;2.23;;
35578;SDS011;21687;48.900;9.188;2022-10-16T00:47:40;1.90;;;1.80;;
35578;SDS011;21687;48.900;9.188;2022-10-16T00:50:18;2.73;;;2.03;;
35578;SDS011;21687;48.900;9.188;2022-10-16T00:52:57;2.00;;;1.70;;
35578;SDS011;21687;48.900;9.188;2022-10-16T00:55:26;2.67;;;2.00;;
35578;SDS011;21687;48.900;9.188;2022-10-16T00:57:54;4.33;;;2.10;;
35578;SDS011;21687;48.900;9.188;2022-10-16T01:00:24;3.00;;;1.90;;
35578;SDS011;21687;48.900;9.188;2022-10-16T01:02:52;2.57;;;2.00;;
35578;SDS011;21687;48.900;9.188;2022-10-16T01:05:19;3.73;;;1.80;;
35578;SDS011;21687;48.900;9.188;2022-10-16T01:10:41;2.73;;;1.93;;
35578;SDS011;21687;48.900;9.188;2022-10-16T01:13:21;2.30;;;2.00;;
35578;SDS011;21687;48.900;9.188;2022-10-16T01:15:56;1.90;;;1.80;;
35578;SDS011;21687;48.900;9.188;2022-10-16T01:18:39;2.10;;;2.00;;
35578;SDS011;21687;48.900;9.188;2022-10-16T01:29:15;2.60;;;1.90;;
35578;SDS011;21687;48.900;9.188;2022-10-16T01:31:48;4.57;;;2.03;;
35578;SDS011;21687;48.900;9.188;2022-10-16T01:34:22;1.93;;;1.83;;
35578;SDS011;21687;48.900;9.188;2022-10-16T01:37:09;7.20;;;2.00;;
35578;SDS011;21687;48.900;9.188;2022-10-16T01:39:46;2.10;;;1.57;;
35578;SDS011;21687;48.900;9.188;2022-10-16T01:42:20;2.83;;;1.90;;
35578;SDS011;21687;48.900;9.188;2022-10-16T01:44:49;1.80;;;1.70;;
35578;SDS011;21687;48.900;9.188;2022-10-16T01:47:18;4.63;;;2.00;;
35578;SDS011;21687;48.900;9.188;2022-10-16T01:49:48;1.80;;;1.70;;
35578;SDS011;21687;48.900;9.188;2022-10-16T01:52:16;2.00;;;1.90;;
35578;SDS011;21687;48.900;9.188;2022-10-16T01:54:46;1.57;;;1.47;;
35578;SDS011;21687;48.900;9.188;2022-10-16T01:57:16;2.30;;;1.70;;
35578;SDS011;21687;48.900;9.188;2022-10-16T01:59:45;1.70;;;1.60;;
35578;SDS011;21687;48.900;9.188;2022-10-16T02:02:15;2.30;;;1.60;;
35578;SDS011;21687;48.900;9.188;2022-10-16T02:04:47;1.90;;;1.70;;
35578;SDS011;21687;48.900;9.188;2022-10-16T02:07:18;2.00;;;1.80;;
35578;SDS011;21687;48.900;9.188;2022-10-16T02:09:44;2.70;;;1.93;;
35578;SDS011;21687;48.900;9.188;2022-10-16T02:14:55;2.07;;;1.70;;
35578;SDS011;21687;48.900;9.188;2022-10-16T02:17:21;3.20;;;2.20;;
35578;SDS011;21687;48.900;9.188;2022-10-16T02:19:49;2.10;;;1.80;;
35578;SDS011;21687;48.900;9.188;2022-10-16T02:22:22;4.77;;;1.90;;
35578;SDS011;21687;48.900;9.188;2022-10-16T02:28:00;2.03;;;1.90;;
35578;SDS011;21687;48.900;9.188;2022-10-16T02:33:00;2.33;;;1.90;;
35578;SDS011;21687;48.900;9.188;2022-10-16T02:35:28;2.07;;;1.80;;
35578;SDS011;21687;48.900;9.188;2022-10-16T02:37:56;1.70;;;1.50;;
35578;SDS011;21687;48.900;9.188;2022-10-16T02:40:23;1.90;;;1.67;;
35578;SDS011;21687;48.900;9.188;2022-10-16T02:42:51;2.10;;;1.80;;
35578;SDS011;21687;48.900;9.188;2022-10-16T02:45:18;3.90;;;2.20;;
35578;SDS011;21687;48.900;9.188;2022-10-16T02:47:45;3.03;;;2.13;;
35578;SDS011;21687;48.900;9.188;2022-10-16T02:50:11;2.10;;;1.90;;
35578;SDS011;21687;48.900;9.188;2022-10-16T02:52:38;1.90;;;1.80;;
35578;SDS011;21687;48.900;9.188;2022-10-16T02:55:04;2.30;;;1.83;;
35578;SDS011;21687;48.900;9.188;2022-10-16T02:57:31;1.93;;;1.73;;
35578;SDS011;21687;48.900;9.188;2022-10-16T02:59:57;2.53;;;1.90;;
35578;SDS011;21687;48.900;9.188;2022-10-16T03:02:23;2.00;;;1.80;;
35578;SDS011;21687;48.900;9.188;2022-10-16T03:04:50;2.00;;;1.90;;
35578;SDS011;21687;48.900;9.188;2022-10-16T03:07:16;3.30;;;1.80;;
35578;SDS011;21687;48.900;9.188;2022-10-16T03:09:42;2.83;;;2.13;;
35578;SDS011;21687;48.900;9.188;2022-10-16T03:12:08;2.53;;;1.93;;
35578;SDS011;21687;48.900;9.188;2022-10-16T03:14:36;4.10;;;2.03;;
35578;SDS011;21687;48.900;9.188;2022-10-16T03:17:04;2.80;;;1.83;;
35578;SDS011;21687;48.900;9.188;2022-10-16T03:19:31;1.97;;;1.50;;
35578;SDS011;21687;48.900;9.188;2022-10-16T03:21:57;2.57;;;2.20;;
35578;SDS011;21687;48.900;9.188;2022-10-16T03:24:23;1.80;;;1.70;;
35578;SDS011;21687;48.900;9.188;2022-10-16T03:26:50;3.80;;;2.00;;
35578;SDS011;21687;48.900;9.188;2022-10-16T03:29:16;2.70;;;1.87;;
35578;SDS011;21687;48.900;9.188;2022-10-16T03:31:42;2.97;;;1.70;;
35578;SDS011;21687;48.900;9.188;2022-10-16T03:34:08;2.60;;;2.10;;
35578;SDS011;21687;48.900;9.188;2022-10-16T03:36:34;4.47;;;1.90;;
35578;SDS011;21687;48.900;9.188;2022-10-16T03:39:01;4.13;;;2.13;;
35578;SDS011;21687;48.900;9.188;2022-10-16T03:41:27;3.33;;;2.20;;
35578;SDS011;21687;48.900;9.188;2022-10-16T03:43:53;4.60;;;2.40;;
35578;SDS011;21687;48.900;9.188;2022-10-16T03:46:20;3.63;;;2.10;;
35578;SDS011;21687;48.900;9.188;2022-10-16T03:48:46;3.77;;;2.30;;
35578;SDS011;21687;48.900;9.188;2022-10-16T03:51:12;5.93;;;2.30;;
35578;SDS011;21687;48.900;9.188;2022-10-16T03:53:38;1.83;;;1.70;;
35578;SDS011;21687;48.900;9.188;2022-10-16T03:56:05;5.70;;;2.30;;
35578;SDS011;21687;48.900;9.188;2022-10-16T03:58:31;2.33;;;2.13;;
35578;SDS011;21687;48.900;9.188;2022-10-16T04:00:58;2.90;;;2.20;;
35578;SDS011;21687;48.900;9.188;2022-10-16T04:03:24;2.73;;;2.30;;
35578;SDS011;21687;48.900;9.188;2022-10-16T04:05:50;2.20;;;1.97;;
35578;SDS011;21687;48.900;9.188;2022-10-16T04:08:16;2.30;;;2.10;;
35578;SDS011;21687;48.900;9.188;2022-10-16T04:10:43;1.80;;;1.70;;
35578;SDS011;21687;48.900;9.188;2022-10-16T04:13:09;3.37;;;1.80;;
35578;SDS011;21687;48.900;9.188;2022-10-16T04:15:36;1.90;;;1.80;;
35578;SDS011;21687;48.900;9.188;2022-10-16T04:18:03;2.17;;;1.97;;
35578;SDS011;21687;48.900;9.188;2022-10-16T04:20:29;2.23;;;1.80;;
35578;SDS011;21687;48.900;9.188;2022-10-16T04:22:55;2.13;;;1.90;;
35578;SDS011;21687;48.900;9.188;2022-10-16T04:25:22;1.93;;;1.73;;
35578;SDS011;21687;48.900;9.188;2022-10-16T04:27:48;2.10;;;1.90;;
35578;SDS011;21687;48.900;9.188;2022-10-16T04:30:14;1.97;;;1.87;;
35578;SDS011;21687;48.900;9.188;2022-10-16T04:32:40;2.17;;;1.97;;
35578;SDS011;21687;48.900;9.188;2022-10-16T04:35:07;2.03;;;1.80;;
35578;SDS011;21687;48.900;9.188;2022-10-16T04:37:33;1.93;;;1.73;;
35578;SDS011;21687;48.900;9.188;2022-10-16T04:40:00;3.13;;;1.80;;
35578;SDS011;21687;48.900;9.188;2022-10-16T04:42:26;2.30;;;2.10;;
35578;SDS011;21687;48.900;9.188;2022-10-16T04:44:52;3.10;;;2.00;;
35578;SDS011;21687;48.900;9.188;2022-10-16T04:47:18;2.40;;;1.90;;
35578;SDS011;21687;48.900;9.188;2022-10-16T04:49:45;3.90;;;1.83;;
35578;SDS011;21687;48.900;9.188;2022-10-16T04:52:11;7.20;;;2.10;;
35578;SDS011;21687;48.900;9.188;2022-10-16T04:54:37;2.10;;;1.90;;
35578;SDS011;21687;48.900;9.188;2022-10-16T04:57:03;2.87;;;1.93;;
35578;SDS011;21687;48.900;9.188;2022-10-16T04:59:30;2.73;;;1.70;;
35578;SDS011;21687;48.900;9.188;2022-10-16T05:01:56;3.20;;;1.73;;
35578;SDS011;21687;48.900;9.188;2022-10-16T05:04:22;3.83;;;2.50;;
35578;SDS011;21687;48.900;9.188;2022-10-16T05:06:48;1.93;;;1.77;;
35578;SDS011;21687;48.900;9.188;2022-10-16T05:09:15;2.23;;;2.00;;
35578;SDS011;21687;48.900;9.188;2022-10-16T05:11:41;2.80;;;2.07;;
35578;SDS011;21687;48.900;9.188;2022-10-16T05:14:07;1.83;;;1.70;;
35578;SDS011;21687;48.900;9.188;2022-10-16T05:16:34;3.43;;;2.03;;
35578;SDS011;21687;48.900;9.188;2022-10-16T05:19:00;3.87;;;1.90;;
35578;SDS011;21687;48.900;9.188;2022-10-16T05:21:26;2.20;;;2.00;;
35578;SDS011;21687;48.900;9.188;2022-10-16T05:23:53;2.07;;;1.97;;
35578;SDS011;21687;48.900;9.188;2022-10-16T05:26:20;2.90;;;1.90;;
35578;SDS011;21687;48.900;9.188;2022-10-16T05:28:47;3.67;;;2.30;;
35578;SDS011;21687;48.900;9.188;2022-10-16T05:31:14;3.87;;;2.23;;
35578;SDS011;21687;48.900;9.188;2022-10-16T05:33:40;2.43;;;2.03;;
35578;SDS011;21687;48.900;9.188;2022-10-16T05:36:07;2.40;;;2.20;;
35578;SDS011;21687;48.900;9.188;2022-10-16T05:38:34;3.10;;;2.37;;
35578;SDS011;21687;48.900;9.188;2022-10-16T05:41:02;2.80;;;2.40;;
35578;SDS011;21687;48.900;9.188;2022-10-16T05:43:30;3.70;;;2.53;;
35578;SDS011;21687;48.900;9.188;2022-10-16T05:45:58;2.63;;;2.40;;
35578;SDS011;21687;48.900;9.188;2022-10-16T05:48:26;3.13;;;2.47;;
35578;SDS011;21687;48.900;9.188;2022-10-16T05:50:57;4.33;;;2.43;;
35578;SDS011;21687;48.900;9.188;2022-10-16T05:53:23;4.13;;;2.30;;
35578;SDS011;21687;48.900;9.188;2022-10-16T05:55:57;2.80;;;2.40;;
35578;SDS011;21687;48.900;9.188;2022-10-16T05:58:24;6.80;;;2.20;;
35578;SDS011;21687;48.900;9.188;2022-10-16T06:00:57;3.57;;;2.40;;
35578;SDS011;21687;48.900;9.188;2022-10-16T06:03:25;2.50;;;2.30;;
35578;SDS011;21687;48.900;9.188;2022-10-16T06:05:52;3.10;;;2.17;;
35578;SDS011;21687;48.900;9.188;2022-10-16T06:08:19;2.27;;;2.10;;
35578;SDS011;21687;48.900;9.188;2022-10-16T06:10:47;2.90;;;2.40;;
35578;SDS011;21687;48.900;9.188;2022-10-16T06:13:14;8.13;;;2.37;;
35578;SDS011;21687;48.900;9.188;2022-10-16T06:15:41;2.50;;;2.30;;
35578;SDS011;21687;48.900;9.188;2022-10-16T06:18:08;4.10;;;2.83;;
35578;SDS011;21687;48.900;9.188;2022-10-16T06:20:35;4.43;;;2.70;;
35578;SDS011;21687;48.900;9.188;2022-10-16T06:23:02;5.00;;;2.70;;
35578;SDS011;21687;48.900;9.188;2022-10-16T06:25:29;4.07;;;2.47;;
35578;SDS011;21687;48.900;9.188;2022-10-16T06:27:56;2.77;;;2.30;;
35578;SDS011;21687;48.900;9.188;2022-10-16T06:30:23;3.00;;;2.60;;
35578;SDS011;21687;48.900;9.188;2022-10-16T06:32:49;3.17;;;2.80;;
35578;SDS011;21687;48.900;9.188;2022-10-16T06:35:15;3.47;;;2.50;;
35578;SDS011;21687;48.900;9.188;2022-10-16T06:37:42;5.37;;;3.17;;
35578;SDS011;21687;48.900;9.188;2022-10-16T06:40:08;2.70;;;2.47;;
35578;SDS011;21687;48.900;9.188;2022-10-16T06:42:34;5.37;;;3.03;;
35578;SDS011;21687;48.900;9.188;2022-10-16T06:45:01;3.63;;;2.50;;
35578;SDS011;21687;48.900;9.188;2022-10-16T06:47:27;2.57;;;2.37;;
35578;SDS011;21687;48.900;9.188;2022-10-16T06:49:54;3.07;;;2.53;;
35578;SDS011;21687;48.900;9.188;2022-10-16T06:52:20;5.27;;;2.60;;
35578;SDS011;21687;48.900;9.188;2022-10-16T06:54:46;3.53;;;2.53;;
35578;SDS011;21687;48.900;9.188;2022-10-16T06:57:12;3.27;;;2.43;;
35578;SDS011;21687;48.900;9.188;2022-10-16T06:59:41;3.70;;;2.67;;
35578;SDS011;21687;48.900;9.188;2022-10-16T07:02:08;4.17;;;2.20;;
35578;SDS011;21687;48.900;9.188;2022-10-16T07:04:35;3.43;;;2.50;;
35578;SDS011;21687;48.900;9.188;2022-10-16T07:07:02;2.80;;;2.57;;
35578;SDS011;21687;48.900;9.188;2022-10-16T07:09:29;4.47;;;2.60;;
35578;SDS011;21687;48.900;9.188;2022-10-16T07:11:55;3.83;;;2.40;;
35578;SDS011;21687;48.900;9.188;2022-10-16T07:14:22;4.77;;;2.63;;
35578;SDS011;21687;48.900;9.188;2022-10-16T07:16:48;6.17;;;3.13;;
35578;SDS011;21687;48.900;9.188;2022-10-16T07:19:33;5.10;;;3.27;;
35578;SDS011;21687;48.900;9.188;2022-10-16T07:22:03;3.40;;;2.80;;
35578;SDS011;21687;48.900;9.188;2022-10-16T07:24:29;4.43;;;3.53;;
35578;SDS011;21687;48.900;9.188;2022-10-16T07:26:58;8.00;;;4.77;;
35578;SDS011;21687;48.900;9.188;2022-10-16T07:29:27;7.87;;;4.57;;
35578;SDS011;21687;48.900;9.188;2022-10-16T07:31:56;6.23;;;4.90;;
35578;SDS011;21687;48.900;9.188;2022-10-16T07:34:25;7.33;;;4.40;;
35578;SDS011;21687;48.900;9.188;2022-10-16T07:36:52;5.97;;;4.70;;
35578;SDS011;21687;48.900;9.188;2022-10-16T07:39:18;5.67;;;4.60;;
35578;SDS011;21687;48.900;9.188;2022-10-16T07:41:45;8.63;;;5.30;;
35578;SDS011;21687;48.900;9.188;2022-10-16T07:44:11;8.07;;;5.97;;
35578;SDS011;21687;48.900;9.188;2022-10-16T07:46:37;9.07;;;6.67;;
35578;SDS011;21687;48.900;9.188;2022-10-16T07:49:04;8.20;;;6.83;;
35578;SDS011;21687;48.900;9.188;2022-10-16T07:51:30;8.87;;;6.37;;
35578;SDS011;21687;48.900;9.188;2022-10-16T07:53:57;6.03;;;4.60;;
35578;SDS011;21687;48.900;9.188;2022-10-16T07:56:23;4.67;;;4.20;;
35578;SDS011;21687;48.900;9.188;2022-10-16T07:58:50;6.33;;;4.50;;
35578;SDS011;21687;48.900;9.188;2022-10-16T08:01:17;5.43;;;4.80;;
35578;SDS011;21687;48.900;9.188;2022-10-16T08:03:44;4.63;;;3.67;;
35578;SDS011;21687;48.900;9.188;2022-10-16T08:06:12;3.83;;;3.00;;
35578;SDS011;21687;48.900;9.188;2022-10-16T08:08:39;1.97;;;1.87;;
35578;SDS011;21687;48.900;9.188;2022-10-16T08:11:05;2.73;;;2.17;;
35578;SDS011;21687;48.900;9.188;2022-10-16T08:13:32;4.27;;;2.33;;
35578;SDS011;21687;48.900;9.188;2022-10-16T08:15:58;4.77;;;2.00;;
35578;SDS011;21687;48.900;9.188;2022-10-16T08:18:25;1.87;;;1.70;;
35578;SDS011;21687;48.900;9.188;2022-10-16T08:20:55;2.67;;;1.77;;
35578;SDS011;21687;48.900;9.188;2022-10-16T08:23:23;2.53;;;1.60;;
35578;SDS011;21687;48.900;9.188;2022-10-16T08:25:50;2.00;;;1.90;;
35578;SDS011;21687;48.900;9.188;2022-10-16T08:28:18;3.60;;;1.60;;
35578;SDS011;21687;48.900;9.188;2022-10-16T08:30:45;1.60;;;1.50;;
35578;SDS011;21687;48.900;9.188;2022-10-16T08:33:12;2.20;;;1.57;;
35578;SDS011;21687;48.900;9.188;2022-10-16T08:35:38;2.83;;;1.50;;
35578;SDS011;21687;48.900;9.188;2022-10-16T08:38:05;1.63;;;1.50;;
35578;SDS011;21687;48.900;9.188;2022-10-16T08:40:32;2.23;;;1.60;;
35578;SDS011;21687;48.900;9.188;2022-10-16T08:48:48;6.87;;;1.73;;
35578;SDS011;21687;48.900;9.188;2022-10-16T08:54:04;1.50;;;1.30;;
35578;SDS011;21687;48.900;9.188;2022-10-16T08:56:35;1.83;;;1.67;;
35578;SDS011;21687;48.900;9.188;2022-10-16T08:59:01;1.93;;;1.80;;
35578;SDS011;21687;48.900;9.188;2022-10-16T09:01:37;2.50;;;1.70;;
35578;SDS011;21687;48.900;9.188;2022-10-16T09:10:06;3.57;;;1.67;;
35578;SDS011;21687;48.900;9.188;2022-10-16T09:23:38;2.07;;;1.70;;
35578;SDS011;21687;48.900;9.188;2022-10-16T09:26:05;2.20;;;2.00;;
35578;SDS011;21687;48.900;9.188;2022-10-16T09:28:37;4.67;;;1.80;;
35578;SDS011;21687;48.900;9.188;2022-10-16T09:31:03;3.97;;;1.70;;
35578;SDS011;21687;48.900;9.188;2022-10-16T09:33:30;3.60;;;1.70;;
35578;SDS011;21687;48.900;9.188;2022-10-16T09:36:02;1.63;;;1.53;;
35578;SDS011;21687;48.900;9.188;2022-10-16T09:38:35;1.70;;;1.60;;
35578;SDS011;21687;48.900;9.188;2022-10-16T09:41:15;2.83;;;1.97;;
35578;SDS011;21687;48.900;9.188;2022-10-16T09:43:47;1.70;;;1.60;;
35578;SDS011;21687;48.900;9.188;2022-10-16T09:46:22;2.23;;;1.80;;
35578;SDS011;21687;48.900;9.188;2022-10-16T09:48:53;3.43;;;1.77;;
35578;SDS011;21687;48.900;9.188;2022-10-16T09:53:57;2.53;;;1.77;;
35578;SDS011;21687;48.900;9.188;2022-10-16T09:56:29;3.13;;;1.60;;
35578;SDS011;21687;48.900;9.188;2022-10-16T09:59:10;1.60;;;1.50;;
35578;SDS011;21687;48.900;9.188;2022-10-16T10:04:16;3.53;;;1.60;;
35578;SDS011;21687;48.900;9.188;2022-10-16T10:06:47;1.50;;;1.40;;
35578;SDS011;21687;48.900;9.188;2022-10-16T10:11:47;1.73;;;1.47;;
35578;SDS011;21687;48.900;9.188;2022-10-16T10:14:58;2.53;;;1.67;;
35578;SDS011;21687;48.900;9.188;2022-10-16T10:17:14;1.83;;;1.73;;
35578;SDS011;21687;48.900;9.188;2022-10-16T10:30:54;2.90;;;2.30;;
35578;SDS011;21687;48.900;9.188;2022-10-16T10:33:41;8.07;;;1.70;;
35578;SDS011;21687;48.900;9.188;2022-10-16T10:44:55;1.50;;;1.37;;
35578;SDS011;21687;48.900;9.188;2022-10-16T10:47:40;1.40;;;1.30;;
35578;SDS011;21687;48.900;9.188;2022-10-16T10:50:18;2.03;;;1.63;;
35578;SDS011;21687;48.900;9.188;2022-10-16T10:53:18;1.97;;;1.60;;
35578;SDS011;21687;48.900;9.188;2022-10-16T11:04:58;1.80;;;1.40;;
35578;SDS011;21687;48.900;9.188;2022-10-16T11:07:54;2.60;;;1.50;;
35578;SDS011;21687;48.900;9.188;2022-10-16T11:11:16;3.63;;;1.80;;
35578;SDS011;21687;48.900;9.188;2022-10-16T11:13:42;3.07;;;1.67;;
35578;SDS011;21687;48.900;9.188;2022-10-16T11:16:22;1.60;;;1.50;;
35578;SDS011;21687;48.900;9.188;2022-10-16T11:18:58;1.80;;;1.60;;
35578;SDS011;21687;48.900;9.188;2022-10-16T11:21:29;1.40;;;1.30;;
35578;SDS011;21687;48.900;9.188;2022-10-16T11:24:21;2.50;;;1.90;;
35578;SDS011;21687;48.900;9.188;2022-10-16T11:26:56;2.83;;;1.60;;
35578;SDS011;21687;48.900;9.188;2022-10-16T11:29:29;1.63;;;1.53;;
35578;SDS011;21687;48.900;9.188;2022-10-16T11:31:58;3.33;;;1.40;;
35578;SDS011;21687;48.900;9.188;2022-10-16T11:34:48;2.00;;;1.30;;
35578;SDS011;21687;48.900;9.188;2022-10-16T11:37:41;1.50;;;1.40;;
35578;SDS011;21687;48.900;9.188;2022-10-16T11:40:24;1.43;;;1.33;;
35578;SDS011;21687;48.900;9.188;2022-10-16T11:43:02;1.40;;;1.30;;
35578;SDS011;21687;48.900;9.188;2022-10-16T11:46:02;1.07;;;1.07;;
35578;SDS011;21687;48.900;9.188;2022-10-16T11:51:19;1.50;;;1.40;;
35578;SDS011;21687;48.900;9.188;2022-10-16T11:53:53;1.67;;;1.50;;
35578;SDS011;21687;48.900;9.188;2022-10-16T11:56:22;2.20;;;1.30;;
35578;SDS011;21687;48.900;9.188;2022-10-16T11:58:54;1.77;;;1.40;;
35578;SDS011;21687;48.900;9.188;2022-10-16T12:01:29;3.40;;;1.40;;
35578;SDS011;21687;48.900;9.188;2022-10-16T12:09:30;1.37;;;1.27;;
35578;SDS011;21687;48.900;9.188;2022-10-16T12:11:59;2.40;;;1.30;;
35578;SDS011;21687;48.900;9.188;2022-10-16T12:17:03;1.40;;;1.30;;
35578;SDS011;21687;48.900;9.188;2022-10-16T12:19:58;1.23;;;1.20;;
35578;SDS011;21687;48.900;9.188;2022-10-16T12:22:40;1.90;;;1.20;;
35578;SDS011;21687;48.900;9.188;2022-10-16T12:28:00;2.20;;;1.30;;
35578;SDS011;21687;48.900;9.188;2022-10-16T12:30:39;6.50;;;1.50;;
35578;SDS011;21687;48.900;9.188;2022-10-16T12:35:50;2.33;;;1.40;;
35578;SDS011;21687;48.900;9.188;2022-10-16T12:38:19;1.50;;;1.20;;
35578;SDS011;21687;48.900;9.188;2022-10-16T12:40:54;1.27;;;1.20;;
35578;SDS011;21687;48.900;9.188;2022-10-16T12:43:25;1.50;;;1.30;;
35578;SDS011;21687;48.900;9.188;2022-10-16T12:46:04;1.77;;;1.40;;
35578;SDS011;21687;48.900;9.188;2022-10-16T12:48:35;1.20;;;1.20;;
35578;SDS011;21687;48.900;9.188;2022-10-16T12:51:10;1.57;;;1.23;;
35578;SDS011;21687;48.900;9.188;2022-10-16T12:54:37;8.83;;;1.50;;
35578;SDS011;21687;48.900;9.188;2022-10-16T13:11:45;1.27;;;1.20;;
35578;SDS011;21687;48.900;9.188;2022-10-16T13:27:55;2.47;;;1.50;;
35578;SDS011;21687;48.900;9.188;2022-10-16T13:30:26;1.50;;;1.47;;
35578;SDS011;21687;48.900;9.188;2022-10-16T13:32:58;1.50;;;1.40;;
35578;SDS011;21687;48.900;9.188;2022-10-16T13:35:29;3.23;;;1.50;;
35578;SDS011;21687;48.900;9.188;2022-10-16T13:38:11;1.50;;;1.40;;
35578;SDS011;21687;48.900;9.188;2022-10-16T13:40:58;1.43;;;1.33;;
35578;SDS011;21687;48.900;9.188;2022-10-16T13:43:31;1.50;;;1.40;;
35578;SDS011;21687;48.900;9.188;2022-10-16T13:46:12;1.87;;;1.20;;
35578;SDS011;21687;48.900;9.188;2022-10-16T13:48:38;1.27;;;1.13;;
35578;SDS011;21687;48.900;9.188;2022-10-16T13:51:06;1.43;;;1.33;;
35578;SDS011;21687;48.900;9.188;2022-10-16T13:53:40;2.10;;;1.20;;
35578;SDS011;21687;48.900;9.188;2022-10-16T13:56:09;1.30;;;1.30;;
35578;SDS011;21687;48.900;9.188;2022-10-16T13:58:38;1.50;;;1.40;;
35578;SDS011;21687;48.900;9.188;2022-10-16T14:01:05;2.53;;;1.50;;
35578;SDS011;21687;48.900;9.188;2022-10-16T14:03:53;1.50;;;1.40;;
35578;SDS011;21687;48.900;9.188;2022-10-16T14:06:33;3.33;;;1.50;;
35578;SDS011;21687;48.900;9.188;2022-10-16T14:11:32;1.83;;;1.70;;
35578;SDS011;21687;48.900;9.188;2022-10-16T14:14:10;1.67;;;1.50;;
35578;SDS011;21687;48.900;9.188;2022-10-16T14:16:37;2.70;;;1.50;;
35578;SDS011;21687;48.900;9.188;2022-10-16T14:19:12;1.37;;;1.30;;
35578;SDS011;21687;48.900;9.188;2022-10-16T14:22:18;1.30;;;1.30;;
35578;SDS011;21687;48.900;9.188;2022-10-16T14:25:45;1.90;;;1.60;;
35578;SDS011;21687;48.900;9.188;2022-10-16T14:28:04;2.57;;;1.50;;
35578;SDS011;21687;48.900;9.188;2022-10-16T14:30:49;2.13;;;1.67;;
35578;SDS011;21687;48.900;9.188;2022-10-16T14:33:24;1.53;;;1.43;;
35578;SDS011;21687;48.900;9.188;2022-10-16T14:38:31;2.20;;;1.63;;
35578;SDS011;21687;48.900;9.188;2022-10-16T14:40:58;1.30;;;1.30;;
35578;SDS011;21687;48.900;9.188;2022-10-16T14:43:29;1.63;;;1.53;;
35578;SDS011;21687;48.900;9.188;2022-10-16T14:45:59;2.23;;;2.03;;
35578;SDS011;21687;48.900;9.188;2022-10-16T14:48:26;3.33;;;2.03;;
35578;SDS011;21687;48.900;9.188;2022-10-16T14:50:53;1.80;;;1.70;;
35578;SDS011;21687;48.900;9.188;2022-10-16T14:56:52;1.80;;;1.70;;
35578;SDS011;21687;48.900;9.188;2022-10-16T14:59:30;2.20;;;1.90;;
35578;SDS011;21687;48.900;9.188;2022-10-16T15:04:57;1.90;;;1.80;;
35578;SDS011;21687;48.900;9.188;2022-10-16T15:07:30;1.70;;;1.60;;
35578;SDS011;21687;48.900;9.188;2022-10-16T15:09:56;1.80;;;1.70;;
35578;SDS011;21687;48.900;9.188;2022-10-16T15:12:23;2.33;;;1.57;;
35578;SDS011;21687;48.900;9.188;2022-10-16T15:14:49;1.80;;;1.70;;
35578;SDS011;21687;48.900;9.188;2022-10-16T15:17:16;4.13;;;1.90;;
35578;SDS011;21687;48.900;9.188;2022-10-16T15:19:42;1.93;;;1.53;;
35578;SDS011;21687;48.900;9.188;2022-10-16T15:22:10;1.70;;;1.60;;
35578;SDS011;21687;48.900;9.188;2022-10-16T15:24:37;1.70;;;1.60;;
35578;SDS011;21687;48.900;9.188;2022-10-16T15:30:26;4.30;;;1.77;;
35578;SDS011;21687;48.900;9.188;2022-10-16T15:32:53;1.90;;;1.53;;
35578;SDS011;21687;48.900;9.188;2022-10-16T15:35:19;1.83;;;1.70;;
35578;SDS011;21687;48.900;9.188;2022-10-16T15:37:46;1.70;;;1.60;;
35578;SDS011;21687;48.900;9.188;2022-10-16T15:40:13;3.20;;;1.83;;
35578;SDS011;21687;48.900;9.188;2022-10-16T15:42:41;1.73;;;1.63;;
35578;SDS011;21687;48.900;9.188;2022-10-16T15:45:08;4.57;;;2.07;;
35578;SDS011;21687;48.900;9.188;2022-10-16T15:47:35;2.40;;;2.20;;
35578;SDS011;21687;48.900;9.188;2022-10-16T15:50:02;2.93;;;2.17;;
35578;SDS011;21687;48.900;9.188;2022-10-16T15:52:29;2.53;;;2.13;;
35578;SDS011;21687;48.900;9.188;2022-10-16T15:54:57;2.40;;;2.00;;
35578;SDS011;21687;48.900;9.188;2022-10-16T15:57:23;4.27;;;2.03;;
35578;SDS011;21687;48.900;9.188;2022-10-16T15:59:50;2.10;;;1.90;;
35578;SDS011;21687;48.900;9.188;2022-10-16T16:02:16;1.90;;;1.80;;
35578;SDS011;21687;48.900;9.188;2022-10-16T16:04:43;2.30;;;2.10;;
35578;SDS011;21687;48.900;9.188;2022-10-16T16:07:27;3.20;;;2.23;;
35578;SDS011;21687;48.900;9.188;2022-10-16T16:09:53;2.00;;;1.80;;
35578;SDS011;21687;48.900;9.188;2022-10-16T16:12:20;3.10;;;2.37;;
35578;SDS011;21687;48.900;9.188;2022-10-16T16:14:46;2.00;;;1.90;;
35578;SDS011;21687;48.900;9.188;2022-10-16T16:17:14;2.17;;;1.97;;
35578;SDS011;21687;48.900;9.188;2022-10-16T16:19:40;2.33;;;1.60;;
35578;SDS011;21687;48.900;9.188;2022-10-16T16:22:06;3.20;;;1.83;;
35578;SDS011;21687;48.900;9.188;2022-10-16T16:24:32;2.03;;;1.83;;
35578;SDS011;21687;48.900;9.188;2022-10-16T16:26:59;3.13;;;1.77;;
35578;SDS011;21687;48.900;9.188;2022-10-16T16:29:25;1.80;;;1.70;;
35578;SDS011;21687;48.900;9.188;2022-10-16T16:31:51;2.20;;;2.00;;
35578;SDS011;21687;48.900;9.188;2022-10-16T16:34:22;1.80;;;1.70;;
35578;SDS011;21687;48.900;9.188;2022-10-16T16:36:49;2.73;;;1.90;;
35578;SDS011;21687;48.900;9.188;2022-10-16T16:39:16;3.23;;;1.83;;
35578;SDS011;21687;48.900;9.188;2022-10-16T16:41:42;4.30;;;1.80;;
35578;SDS011;21687;48.900;9.188;2022-10-16T16:44:10;2.50;;;2.20;;
35578;SDS011;21687;48.900;9.188;2022-10-16T16:46:37;3.83;;;2.17;;
35578;SDS011;21687;48.900;9.188;2022-10-16T16:49:05;2.10;;;2.00;;
35578;SDS011;21687;48.900;9.188;2022-10-16T16:51:31;2.53;;;1.70;;
35578;SDS011;21687;48.900;9.188;2022-10-16T16:53:58;2.70;;;2.10;;
35578;SDS011;21687;48.900;9.188;2022-10-16T16:56:25;3.60;;;2.20;;
35578;SDS011;21687;48.900;9.188;2022-10-16T16:58:53;4.33;;;2.90;;
35578;SDS011;21687;48.900;9.188;2022-10-16T17:01:21;5.37;;;2.30;;
35578;SDS011;21687;48.900;9.188;2022-10-16T17:03:52;2.40;;;2.20;;
35578;SDS011;21687;48.900;9.188;2022-10-16T17:06:20;3.07;;;2.50;;
35578;SDS011;21687;48.900;9.188;2022-10-16T17:08:49;3.67;;;2.80;;
35578;SDS011;21687;48.900;9.188;2022-10-16T17:11:16;2.63;;;2.43;;
35578;SDS011;21687;48.900;9.188;2022-10-16T17:13:45;4.37;;;2.23;;
35578;SDS011;21687;48.900;9.188;2022-10-16T17:16:12;3.93;;;2.73;;
35578;SDS011;21687;48.900;9.188;2022-10-16T17:18:39;4.53;;;2.53;;
35578;SDS011;21687;48.900;9.188;2022-10-16T17:21:07;5.17;;;3.03;;
35578;SDS011;21687;48.900;9.188;2022-10-16T17:23:35;3.53;;;2.60;;
35578;SDS011;21687;48.900;9.188;2022-10-16T17:26:12;6.40;;;2.80;;